createdAt,value
2022-11-15T00:00:43.005Z,42.27
2022-11-15T00:03:29.146Z,38.23
2022-11-15T00:06:15.056Z,40.67
2022-11-15T00:09:01.505Z,37.80
2022-11-15T00:11:46.761Z,39.03
2022-11-15T00:14:32.344Z,38.97
2022-11-15T00:17:17.563Z,40.43
2022-11-15T00:20:02.953Z,38.57
2022-11-15T00:22:48.252Z,41.63
2022-11-15T00:25:33.945Z,40.20
2022-11-15T00:28:19.461Z,39.63
2022-11-15T00:31:07.842Z,37.20
2022-11-15T00:33:53.112Z,35.90
2022-11-15T00:36:38.526Z,39.73
2022-11-15T00:39:23.760Z,37.53
2022-11-15T00:42:09.083Z,35.07
2022-11-15T00:44:54.271Z,38.00
2022-11-15T00:47:39.609Z,37.17
2022-11-15T00:50:24.927Z,37.83
2022-11-15T00:53:10.896Z,38.03
2022-11-15T00:55:56.519Z,37.77
2022-11-15T00:58:41.847Z,40.30
2022-11-15T01:01:27.290Z,39.40
2022-11-15T01:04:12.554Z,43.50
2022-11-15T01:06:57.989Z,39.63
2022-11-15T01:09:43.943Z,37.50
2022-11-15T01:12:29.299Z,37.13
2022-11-15T01:15:14.726Z,36.13
2022-11-15T01:18:00.021Z,37.57
2022-11-15T01:20:45.247Z,38.00
2022-11-15T01:23:30.995Z,37.60
2022-11-15T01:26:17.697Z,39.10
2022-11-15T01:29:03.448Z,38.37
2022-11-15T01:31:49.024Z,37.00
2022-11-15T01:34:34.339Z,36.00
2022-11-15T01:37:19.611Z,38.80
2022-11-15T01:40:05.348Z,35.77
2022-11-15T01:42:50.894Z,37.40
2022-11-15T01:45:36.286Z,37.97
2022-11-15T01:48:23.329Z,39.30
2022-11-15T01:51:12.292Z,36.40
2022-11-15T01:54:03.939Z,36.10
2022-11-15T01:57:00.910Z,34.30
2022-11-15T01:59:46.673Z,37.57
2022-11-15T02:02:33.536Z,37.97
2022-11-15T02:05:19.183Z,35.60
2022-11-15T02:08:04.900Z,34.80
2022-11-15T02:10:50.344Z,37.10
2022-11-15T02:13:36.622Z,39.80
2022-11-15T02:16:56.718Z,37.57
2022-11-15T02:20:14.785Z,40.50
2022-11-15T02:24:11.878Z,35.50
2022-11-15T02:27:57.151Z,35.97
2022-11-15T02:31:06.128Z,34.30
2022-11-15T02:34:04.067Z,36.33
2022-11-15T02:37:23.046Z,35.10
2022-11-15T02:40:35.612Z,36.27
2022-11-15T02:43:56.275Z,36.87
2022-11-15T02:47:12.202Z,34.07
2022-11-15T02:50:03.029Z,36.20
2022-11-15T02:52:50.599Z,36.60
2022-11-15T02:55:46.694Z,35.70
2022-11-15T02:58:46.534Z,30.97
2022-11-15T03:02:12.083Z,33.83
2022-11-15T03:05:25.010Z,35.80
2022-11-15T03:09:01.587Z,35.47
2022-11-15T03:11:57.602Z,35.90
2022-11-15T03:14:59.247Z,36.20
2022-11-15T03:17:53.358Z,35.77
2022-11-15T03:20:39.659Z,36.60
2022-11-15T03:23:25.974Z,37.03
2022-11-15T03:26:15.756Z,36.60
2022-11-15T03:29:17.248Z,34.20
2022-11-15T03:32:14.970Z,34.20
2022-11-15T03:35:06.593Z,34.60
2022-11-15T03:38:26.262Z,31.53
2022-11-15T03:41:23.463Z,33.40
2022-11-15T03:44:38.078Z,31.80
2022-11-15T03:47:39.867Z,31.77
2022-11-15T03:50:27.475Z,34.07
2022-11-15T03:53:14.564Z,32.50
2022-11-15T03:56:00.099Z,34.17
2022-11-15T03:58:45.436Z,32.87
2022-11-15T04:01:30.776Z,31.90
2022-11-15T04:04:16.399Z,31.63
2022-11-15T04:07:01.707Z,31.63
2022-11-15T04:10:06.342Z,34.10
2022-11-15T04:12:51.919Z,29.57
2022-11-15T04:15:37.683Z,29.70
2022-11-15T04:18:23.596Z,28.73
2022-11-15T04:21:28.323Z,29.27
2022-11-15T04:24:13.976Z,31.07
2022-11-15T04:26:59.456Z,30.97
2022-11-15T04:29:44.745Z,30.70
2022-11-15T04:32:29.923Z,32.53
2022-11-15T04:35:15.315Z,33.83
2022-11-15T04:38:01.521Z,32.20
2022-11-15T04:40:47.982Z,34.33
2022-11-15T04:43:33.809Z,33.40
2022-11-15T04:46:19.298Z,31.20
2022-11-15T04:49:04.602Z,32.23
2022-11-15T04:51:50.046Z,34.20
2022-11-15T04:54:35.359Z,32.83
2022-11-15T04:57:20.774Z,34.60
2022-11-15T05:00:09.641Z,31.97
2022-11-15T05:03:13.877Z,29.90
2022-11-15T05:06:00.159Z,30.50
2022-11-15T05:08:45.571Z,31.30
2022-11-15T05:11:30.948Z,29.97
2022-11-15T05:14:16.714Z,30.30
2022-11-15T05:17:02.201Z,32.87
2022-11-15T05:19:47.489Z,31.13
2022-11-15T05:22:32.814Z,31.47
2022-11-15T05:25:18.114Z,28.77
2022-11-15T05:28:03.591Z,30.43
2022-11-15T05:30:48.925Z,30.70
2022-11-15T05:33:39.758Z,29.83
2022-11-15T05:36:35.890Z,32.00
2022-11-15T05:39:21.335Z,33.10
2022-11-15T05:42:12.214Z,33.03
2022-11-15T05:44:59.133Z,31.57
2022-11-15T05:47:45.785Z,28.67
2022-11-15T05:50:31.587Z,28.47
2022-11-15T05:53:21.664Z,29.60
2022-11-15T05:56:07.714Z,29.73
2022-11-15T05:58:59.539Z,31.70
2022-11-15T06:01:45.526Z,34.27
2022-11-15T06:04:31.317Z,36.37
2022-11-15T06:07:16.668Z,39.13
2022-11-15T06:10:02.557Z,29.93
2022-11-15T06:12:47.961Z,32.90
2022-11-15T06:15:35.276Z,32.73
2022-11-15T06:18:21.034Z,33.40
2022-11-15T06:21:06.899Z,28.03
2022-11-15T06:23:52.530Z,31.10
2022-11-15T06:26:37.886Z,28.33
2022-11-15T06:29:23.160Z,25.97
2022-11-15T06:32:08.644Z,31.70
2022-11-15T06:34:53.964Z,31.37
2022-11-15T06:37:39.193Z,30.00
2022-11-15T06:40:24.489Z,27.23
2022-11-15T06:43:09.830Z,28.80
2022-11-15T06:45:55.151Z,30.73
2022-11-15T06:48:40.474Z,28.50
2022-11-15T06:51:25.740Z,32.80
2022-11-15T06:54:11.028Z,31.43
2022-11-15T06:56:56.317Z,33.67
2022-11-15T06:59:41.693Z,30.00
2022-11-15T07:02:27.264Z,34.80
2022-11-15T07:05:14.464Z,31.40
2022-11-15T07:08:00.761Z,30.47
2022-11-15T07:10:46.291Z,29.90
2022-11-15T07:13:34.693Z,29.00
2022-11-15T07:16:20.508Z,27.90
2022-11-15T07:19:05.823Z,30.57
2022-11-15T07:21:51.073Z,27.00
2022-11-15T07:24:36.428Z,27.53
2022-11-15T07:27:21.869Z,26.13
2022-11-15T07:30:08.301Z,29.07
2022-11-15T07:32:59.100Z,28.70
2022-11-15T07:35:47.396Z,27.80
2022-11-15T07:38:38.022Z,28.53
2022-11-15T07:41:26.554Z,29.60
2022-11-15T07:44:11.765Z,32.07
2022-11-15T07:46:57.105Z,33.60
2022-11-15T07:49:42.425Z,30.60
2022-11-15T07:52:27.583Z,29.30
2022-11-15T07:55:13.248Z,33.47
2022-11-15T07:58:07.428Z,31.53
2022-11-15T08:00:53.171Z,33.33
2022-11-15T08:03:39.071Z,32.10
2022-11-15T08:06:24.597Z,33.10
2022-11-15T08:09:09.906Z,30.87
2022-11-15T08:11:55.307Z,30.00
2022-11-15T08:14:40.776Z,35.17
2022-11-15T08:17:26.475Z,33.10
2022-11-15T08:20:12.106Z,31.93
2022-11-15T08:23:02.017Z,33.37
2022-11-15T08:25:47.658Z,32.57
2022-11-15T08:28:33.481Z,33.23
2022-11-15T08:31:19.793Z,31.27
2022-11-15T08:34:05.849Z,32.17
2022-11-15T08:36:51.341Z,32.93
2022-11-15T08:39:36.563Z,33.53
2022-11-15T08:42:21.709Z,32.60
2022-11-15T08:45:08.339Z,34.70
2022-11-15T08:47:54.603Z,34.23
2022-11-15T08:50:40.364Z,32.27
2022-11-15T08:53:25.572Z,28.60
2022-11-15T08:56:13.177Z,34.13
2022-11-15T08:58:58.898Z,30.90
2022-11-15T09:01:44.330Z,33.33
2022-11-15T09:04:30.048Z,35.57
2022-11-15T09:07:15.779Z,37.40
2022-11-15T09:10:01.447Z,36.90
2022-11-15T09:12:49.299Z,39.50
2022-11-15T09:15:35.070Z,33.40
2022-11-15T09:18:23.228Z,32.60
2022-11-15T09:21:09.793Z,35.80
2022-11-15T09:23:55.326Z,34.90
2022-11-15T09:26:41.358Z,36.23
2022-11-15T09:29:26.659Z,38.37
2022-11-15T09:32:12.001Z,35.80
2022-11-15T09:34:57.811Z,34.30
2022-11-15T09:37:43.515Z,33.80
2022-11-15T09:40:28.889Z,31.10
2022-11-15T09:43:40.848Z,33.63
2022-11-15T09:46:57.394Z,29.20
2022-11-15T09:49:43.321Z,28.30
2022-11-15T09:52:20.077Z,33.77
2022-11-15T09:54:53.829Z,33.03
2022-11-15T09:57:41.052Z,31.80
2022-11-15T10:00:46.341Z,32.07
2022-11-15T10:03:29.565Z,31.40
2022-11-15T10:06:01.909Z,28.73
2022-11-15T10:08:46.685Z,28.33
2022-11-15T10:11:38.990Z,28.67
2022-11-15T10:14:21.362Z,32.23
2022-11-15T10:17:34.620Z,29.63
2022-11-15T10:20:26.180Z,29.73
2022-11-15T10:23:00.671Z,31.83
2022-11-15T10:25:30.812Z,29.40
2022-11-15T10:28:12.344Z,32.20
2022-11-15T10:30:42.900Z,30.07
2022-11-15T10:33:36.233Z,31.63
2022-11-15T10:36:09.627Z,31.50
2022-11-15T10:38:51.786Z,31.33
2022-11-15T10:41:30.975Z,29.97
2022-11-15T10:44:19.144Z,31.70
2022-11-15T10:47:17.240Z,29.63
2022-11-15T10:49:59.830Z,33.73
2022-11-15T10:52:28.017Z,34.50
2022-11-15T10:55:28.456Z,32.10
2022-11-15T10:58:20.284Z,32.87
2022-11-15T11:00:47.584Z,30.97
2022-11-15T11:03:35.879Z,31.13
2022-11-15T11:06:16.788Z,30.70
2022-11-15T11:09:05.606Z,30.87
2022-11-15T11:12:02.943Z,28.83
2022-11-15T11:14:35.926Z,29.33
2022-11-15T11:17:37.788Z,28.80
2022-11-15T11:20:28.195Z,29.27
2022-11-15T11:23:16.945Z,30.93
2022-11-15T11:26:09.496Z,31.80
2022-11-15T11:29:05.550Z,28.27
2022-11-15T11:32:01.028Z,29.40
2022-11-15T11:34:46.962Z,28.03
2022-11-15T11:37:44.455Z,28.90
2022-11-15T11:40:44.500Z,30.73
2022-11-15T11:43:38.053Z,27.67
2022-11-15T11:46:38.730Z,27.67
2022-11-15T11:49:11.458Z,29.17
2022-11-15T11:51:46.967Z,31.07
2022-11-15T11:54:49.693Z,30.43
2022-11-15T11:57:41.121Z,27.60
2022-11-15T12:00:25.116Z,29.50
2022-11-15T12:03:08.374Z,29.80
2022-11-15T12:06:02.895Z,29.80
2022-11-15T12:08:54.854Z,28.77
2022-11-15T12:11:38.271Z,28.80
2022-11-15T12:14:15.729Z,29.60
2022-11-15T12:16:43.919Z,27.33
2022-11-15T12:19:10.841Z,26.77
2022-11-15T12:22:03.679Z,28.17
2022-11-15T12:24:46.500Z,27.97
2022-11-15T12:27:39.373Z,28.43
2022-11-15T12:30:15.427Z,28.67
2022-11-15T12:32:58.301Z,28.83
2022-11-15T12:35:42.631Z,30.00
2022-11-15T12:38:13.872Z,28.90
2022-11-15T12:41:15.760Z,29.20
2022-11-15T12:43:44.855Z,26.37
2022-11-15T12:46:29.675Z,25.37
2022-11-15T12:49:00.579Z,26.17
2022-11-15T12:51:59.899Z,27.33
2022-11-15T12:54:28.193Z,26.33
2022-11-15T12:57:03.773Z,26.83
2022-11-15T12:59:55.754Z,25.43
2022-11-15T13:02:46.300Z,25.73
2022-11-15T13:05:16.414Z,26.70
2022-11-15T13:07:43.161Z,27.27
2022-11-15T13:10:28.508Z,26.60
2022-11-15T13:13:04.989Z,27.67
2022-11-15T13:15:41.142Z,26.50
2022-11-15T13:18:29.474Z,31.10
2022-11-15T13:21:01.984Z,27.80
2022-11-15T13:23:29.474Z,29.77
2022-11-15T13:26:17.621Z,30.17
2022-11-15T13:28:54.273Z,29.97
2022-11-15T13:31:31.702Z,30.23
2022-11-15T13:34:04.109Z,25.10
2022-11-15T13:36:35.373Z,27.53
2022-11-15T13:39:33.778Z,30.27
2022-11-15T13:42:01.195Z,28.70
2022-11-15T13:44:33.998Z,27.50
2022-11-15T13:47:13.931Z,27.13
2022-11-15T13:49:41.560Z,26.27
2022-11-15T13:52:14.949Z,25.57
2022-11-15T13:55:00.639Z,25.93
2022-11-15T13:57:35.151Z,28.90
2022-11-15T14:00:07.563Z,28.17
2022-11-15T14:02:40.403Z,27.87
2022-11-15T14:05:18.907Z,29.50
2022-11-15T14:08:19.009Z,26.60
2022-11-15T14:10:45.873Z,31.80
2022-11-15T14:13:30.578Z,28.03
2022-11-15T14:16:19.727Z,26.83
2022-11-15T14:18:51.852Z,26.13
2022-11-15T14:21:20.898Z,25.83
2022-11-15T14:23:47.884Z,26.10
2022-11-15T14:26:36.028Z,28.33
2022-11-15T14:29:29.134Z,27.27
2022-11-15T14:32:17.827Z,27.47
2022-11-15T14:34:45.145Z,29.23
2022-11-15T14:37:27.984Z,28.27
2022-11-15T14:39:55.859Z,27.47
2022-11-15T14:42:24.330Z,28.00
2022-11-15T14:44:51.867Z,31.13
2022-11-15T14:47:19.248Z,29.47
2022-11-15T14:49:46.749Z,28.90
2022-11-15T14:52:37.279Z,29.57
2022-11-15T14:55:15.234Z,26.50
2022-11-15T14:57:42.152Z,27.43
2022-11-15T15:00:12.499Z,27.10
2022-11-15T15:02:40.564Z,31.70
2022-11-15T15:05:27.063Z,32.57
2022-11-15T15:07:54.231Z,28.13
2022-11-15T15:13:22.880Z,27.73
2022-11-15T15:15:51.987Z,31.33
2022-11-15T15:18:21.016Z,31.73
2022-11-15T15:20:57.277Z,28.47
2022-11-15T15:23:26.456Z,30.23
2022-11-15T15:25:54.091Z,34.73
2022-11-15T15:28:20.998Z,36.20
2022-11-15T15:30:47.948Z,33.73
2022-11-15T15:33:14.845Z,36.50
2022-11-15T15:35:41.719Z,34.57
2022-11-15T15:38:13.113Z,35.90
2022-11-15T15:40:40.088Z,33.00
2022-11-15T15:43:09.894Z,33.17
2022-11-15T15:45:40.250Z,35.40
2022-11-15T15:48:09.044Z,34.23
2022-11-15T15:50:36.383Z,34.40
2022-11-15T15:53:04.918Z,32.30
2022-11-15T15:55:32.519Z,32.20
2022-11-15T15:57:59.655Z,30.87
2022-11-15T16:00:27.217Z,31.13
2022-11-15T16:02:54.885Z,31.47
2022-11-15T16:05:23.099Z,30.73
2022-11-15T16:07:50.212Z,31.77
2022-11-15T16:10:30.309Z,33.00
2022-11-15T16:12:58.634Z,29.73
2022-11-15T16:15:28.394Z,28.07
2022-11-15T16:18:00.929Z,32.50
2022-11-15T16:20:40.455Z,29.50
2022-11-15T16:23:11.620Z,29.60
2022-11-15T16:25:50.793Z,31.70
2022-11-15T16:28:29.971Z,31.50
2022-11-15T16:31:07.065Z,28.50
2022-11-15T16:33:34.418Z,32.17
2022-11-15T16:36:01.966Z,28.73
2022-11-15T16:38:28.991Z,27.37
2022-11-15T16:40:55.933Z,32.57
2022-11-15T16:43:22.954Z,33.30
2022-11-15T16:45:51.459Z,29.83
2022-11-15T16:48:27.210Z,29.90
2022-11-15T16:50:59.058Z,30.43
2022-11-15T16:53:27.599Z,29.80
2022-11-15T16:55:55.739Z,27.03
2022-11-15T16:58:22.756Z,30.10
2022-11-15T17:00:54.748Z,28.00
2022-11-15T17:03:25.556Z,28.47
2022-11-15T17:05:52.753Z,27.60
2022-11-15T17:08:21.740Z,27.70
2022-11-15T17:10:48.782Z,33.20
2022-11-15T17:13:15.830Z,30.87
2022-11-15T17:15:42.709Z,30.80
2022-11-15T17:18:14.086Z,29.43
2022-11-15T17:20:41.830Z,36.10
2022-11-15T17:23:14.568Z,30.67
2022-11-15T17:25:41.836Z,36.40
2022-11-15T17:28:08.779Z,36.00
2022-11-15T17:30:35.743Z,34.50
2022-11-15T17:33:02.688Z,38.23
2022-11-15T17:35:29.562Z,37.57
2022-11-15T17:37:56.434Z,38.93
2022-11-15T17:40:23.327Z,38.23
2022-11-15T17:42:50.272Z,36.30
2022-11-15T17:45:17.421Z,35.33
2022-11-15T17:47:44.362Z,40.57
2022-11-15T17:50:11.632Z,41.20
2022-11-15T17:52:38.540Z,39.40
2022-11-15T17:55:05.835Z,44.20
2022-11-15T17:57:32.729Z,42.80
2022-11-15T17:59:59.635Z,42.53
2022-11-15T18:02:26.561Z,40.73
2022-11-15T18:04:53.436Z,44.27
2022-11-15T18:07:20.329Z,42.10
2022-11-15T18:09:47.212Z,42.70
2022-11-15T18:12:14.099Z,38.60
2022-11-15T18:14:41.017Z,41.37
2022-11-15T18:17:07.884Z,41.13
2022-11-15T18:19:34.852Z,41.00
2022-11-15T18:22:04.341Z,39.07
2022-11-15T18:24:34.922Z,43.90
2022-11-15T18:27:04.426Z,43.03
2022-11-15T18:29:33.288Z,40.83
2022-11-15T18:32:00.318Z,35.70
2022-11-15T18:34:31.932Z,34.50
2022-11-15T18:36:59.466Z,33.67
2022-11-15T18:39:26.395Z,30.17
2022-11-15T18:41:53.523Z,33.40
2022-11-15T18:44:20.418Z,31.03
2022-11-15T18:46:47.330Z,30.10
2022-11-15T18:49:16.677Z,32.97
2022-11-15T18:51:43.731Z,27.90
2022-11-15T18:54:14.174Z,29.87
2022-11-15T18:56:44.547Z,29.37
2022-11-15T18:59:11.439Z,28.40
2022-11-15T19:01:40.964Z,30.80
2022-11-15T19:04:18.392Z,29.60
2022-11-15T19:06:50.269Z,29.93
2022-11-15T19:09:19.205Z,28.63
2022-11-15T19:11:48.135Z,29.87
2022-11-15T19:14:19.016Z,30.13
2022-11-15T19:16:52.244Z,27.27
2022-11-15T19:19:25.922Z,27.77
2022-11-15T19:21:53.423Z,26.27
2022-11-15T19:24:20.726Z,26.70
2022-11-15T19:26:47.729Z,29.07
2022-11-15T19:29:15.053Z,27.13
2022-11-15T19:31:42.225Z,28.10
2022-11-15T19:34:09.394Z,27.57
2022-11-15T19:36:42.008Z,29.60
2022-11-15T19:39:12.976Z,25.97
2022-11-15T19:41:42.711Z,26.17
2022-11-15T19:44:11.551Z,25.27
2022-11-15T19:46:39.300Z,26.13
2022-11-15T19:49:08.027Z,25.37
2022-11-15T19:51:34.971Z,25.93
2022-11-15T19:54:06.150Z,24.13
2022-11-15T19:56:34.471Z,24.83
2022-11-15T19:59:02.192Z,23.93
2022-11-15T20:01:32.796Z,23.30
2022-11-15T20:04:00.323Z,22.53
2022-11-15T20:06:31.078Z,23.80
2022-11-15T20:08:58.790Z,23.30
2022-11-15T20:11:26.136Z,21.20
2022-11-15T20:14:02.048Z,22.60
2022-11-15T20:16:29.467Z,24.70
2022-11-15T20:18:56.385Z,23.47
2022-11-15T20:21:23.507Z,22.93
2022-11-15T20:23:51.663Z,23.50
2022-11-15T20:26:19.842Z,24.40
2022-11-15T20:28:48.169Z,23.27
2022-11-15T20:31:16.558Z,22.60
2022-11-15T20:33:43.685Z,21.80
2022-11-15T20:36:14.339Z,21.77
2022-11-15T20:38:41.326Z,24.97
2022-11-15T20:41:08.782Z,21.77
2022-11-15T20:43:35.756Z,21.00
2022-11-15T20:46:02.743Z,23.93
2022-11-15T20:48:31.289Z,22.33
2022-11-15T20:51:12.127Z,21.87
2022-11-15T20:53:39.036Z,25.17
2022-11-15T20:56:16.887Z,21.67
2022-11-15T20:58:45.435Z,23.60
2022-11-15T21:01:15.106Z,22.27
2022-11-15T21:03:42.544Z,22.30
2022-11-15T21:06:11.178Z,20.73
2022-11-15T21:08:57.375Z,21.63
2022-11-15T21:11:43.324Z,20.07
2022-11-15T21:14:10.225Z,24.77
2022-11-15T21:16:38.749Z,24.47
2022-11-15T21:19:06.643Z,22.97
2022-11-15T21:21:35.337Z,22.93
2022-11-15T21:24:08.159Z,22.87
2022-11-15T21:26:36.183Z,24.33
2022-11-15T21:29:03.597Z,23.13
2022-11-15T21:31:31.900Z,23.60
2022-11-15T21:34:02.331Z,21.93
2022-11-15T21:36:29.409Z,19.93
2022-11-15T21:38:56.277Z,21.47
2022-11-15T21:41:23.159Z,23.60
2022-11-15T21:43:50.066Z,22.97
2022-11-15T21:46:17.437Z,23.00
2022-11-15T21:48:44.320Z,22.47
2022-11-15T21:51:13.225Z,23.33
2022-11-15T21:53:40.374Z,21.67
2022-11-15T21:56:07.994Z,21.63
2022-11-15T21:58:36.167Z,23.17
2022-11-15T22:01:22.249Z,22.20
2022-11-15T22:03:49.187Z,24.17
2022-11-15T22:06:18.233Z,23.37
2022-11-15T22:08:46.560Z,27.10
2022-11-15T22:11:14.711Z,27.50
2022-11-15T22:13:42.395Z,28.50
2022-11-15T22:16:10.080Z,27.97
2022-11-15T22:18:37.913Z,25.97
2022-11-15T22:21:11.103Z,35.30
2022-11-15T22:23:38.391Z,34.23
2022-11-15T22:26:06.473Z,34.40
2022-11-15T22:28:33.893Z,41.07
2022-11-15T22:31:01.010Z,45.73
2022-11-15T22:33:33.283Z,45.17
2022-11-15T22:36:01.220Z,47.53
2022-11-15T22:38:28.939Z,45.07
2022-11-15T22:40:56.233Z,46.80
2022-11-15T22:43:26.087Z,41.60
2022-11-15T22:45:57.534Z,45.57
2022-11-15T22:48:28.656Z,47.03
2022-11-15T22:50:56.136Z,44.37
2022-11-15T22:53:23.674Z,46.60
2022-11-15T22:55:56.179Z,42.93
2022-11-15T22:58:25.741Z,43.80
2022-11-15T23:00:56.218Z,39.67
2022-11-15T23:03:24.349Z,38.63
2022-11-15T23:05:51.675Z,36.43
2022-11-15T23:08:19.234Z,36.73
2022-11-15T23:11:05.271Z,38.10
2022-11-15T23:13:33.280Z,34.40
2022-11-15T23:16:22.845Z,30.67
2022-11-15T23:18:52.536Z,32.30
2022-11-15T23:21:44.356Z,29.43
2022-11-15T23:24:13.567Z,30.33
2022-11-15T23:26:41.388Z,29.40
2022-11-15T23:29:10.408Z,25.40
2022-11-15T23:32:01.466Z,22.90
2022-11-15T23:34:31.101Z,25.87
2022-11-15T23:36:59.130Z,23.80
2022-11-15T23:39:26.031Z,23.30
2022-11-15T23:41:52.912Z,22.33
2022-11-15T23:44:19.851Z,22.07
2022-11-15T23:46:46.897Z,21.70
2022-11-15T23:49:13.891Z,21.87
2022-11-15T23:51:40.755Z,20.97
2022-11-15T23:54:07.988Z,21.93
2022-11-15T23:56:35.419Z,20.90
2022-11-15T23:59:02.370Z,21.60
